Fishing Creek, Maryland
Current Conditions -  °F | °C
As of 9:52 PM on Saturday 25 Oct 2014 (Local Time) from KNHK Reporting Station
Clear Clear  
Wind Chill: 60°   Ceiling: Unl
Heat Index: 60°   Visibility: 10mi
Dew Point: 42°   Wind: 9mph
Humidity: 51%   Direction: 210°SSW
Pressure: 29.73"   Gusts: NA
Location:  38.31°N, 76.23°W
Report Text: KNHK 260152Z AUTO 21008KT 10SM CLR 16/06 A2973 RMK AO2 SLP069 T01560056 $
Loading
Personal Weather Stations






























Interactive Weather Map New forecast layout! Learn more

10-Day Weather Forecast

Advertisements
Track Severe Weather on mobile